sensor_id;sensor_type;location;lat;lon;timestamp;pressure;altitude;pressure_sealevel;temperature;humidity
11343;BME280;5726;42.160;24.746;2023-09-18T00:02:07;100055.13;;;22.09;94.47
11343;BME280;5726;42.160;24.746;2023-09-18T00:04:32;100054.88;;;22.14;93.72
11343;BME280;5726;42.160;24.746;2023-09-18T00:06:59;100059.63;;;22.17;93.59
11343;BME280;5726;42.160;24.746;2023-09-18T00:09:24;100052.41;;;22.09;93.60
11343;BME280;5726;42.160;24.746;2023-09-18T00:11:49;100045.97;;;22.02;94.13
11343;BME280;5726;42.160;24.746;2023-09-18T00:14:15;100050.59;;;21.86;94.35
11343;BME280;5726;42.160;24.746;2023-09-18T00:16:40;100033.00;;;21.83;95.15
11343;BME280;5726;42.160;24.746;2023-09-18T00:19:06;100038.91;;;22.01;93.97
11343;BME280;5726;42.160;24.746;2023-09-18T00:21:33;100045.19;;;22.01;93.08
11343;BME280;5726;42.160;24.746;2023-09-18T00:23:59;100045.88;;;21.98;93.14
11343;BME280;5726;42.160;24.746;2023-09-18T00:26:25;100036.84;;;21.82;94.67
11343;BME280;5726;42.160;24.746;2023-09-18T00:28:50;100052.81;;;21.80;94.89
11343;BME280;5726;42.160;24.746;2023-09-18T00:31:16;100043.22;;;22.02;93.11
11343;BME280;5726;42.160;24.746;2023-09-18T00:33:41;100046.88;;;21.78;94.40
11343;BME280;5726;42.160;24.746;2023-09-18T00:36:06;100051.06;;;21.88;94.11
11343;BME280;5726;42.160;24.746;2023-09-18T00:38:32;100045.19;;;22.01;92.66
11343;BME280;5726;42.160;24.746;2023-09-18T00:40:57;100045.06;;;21.82;94.33
11343;BME280;5726;42.160;24.746;2023-09-18T00:43:22;100051.78;;;22.00;93.15
11343;BME280;5726;42.160;24.746;2023-09-18T00:45:48;100051.34;;;21.98;92.91
11343;BME280;5726;42.160;24.746;2023-09-18T00:48:15;100041.25;;;21.71;94.58
11343;BME280;5726;42.160;24.746;2023-09-18T00:50:43;100047.22;;;21.77;95.02
11343;BME280;5726;42.160;24.746;2023-09-18T00:53:09;100042.75;;;21.84;94.39
11343;BME280;5726;42.160;24.746;2023-09-18T00:55:37;100043.22;;;21.86;93.86
11343;BME280;5726;42.160;24.746;2023-09-18T00:58:04;100038.56;;;22.02;92.67
11343;BME280;5726;42.160;24.746;2023-09-18T01:00:30;100048.75;;;21.74;94.94
11343;BME280;5726;42.160;24.746;2023-09-18T01:02:55;100037.56;;;21.79;94.20
11343;BME280;5726;42.160;24.746;2023-09-18T01:05:21;100035.31;;;21.69;95.42
11343;BME280;5726;42.160;24.746;2023-09-18T01:07:47;100039.16;;;21.80;94.54
11343;BME280;5726;42.160;24.746;2023-09-18T01:10:12;100044.78;;;21.87;94.54
11343;BME280;5726;42.160;24.746;2023-09-18T01:12:56;100041.00;;;21.92;94.51
11343;BME280;5726;42.160;24.746;2023-09-18T01:15:33;100046.75;;;22.02;93.61
11343;BME280;5726;42.160;24.746;2023-09-18T01:18:00;100039.16;;;21.80;95.36
11343;BME280;5726;42.160;24.746;2023-09-18T01:20:26;100044.66;;;22.11;92.46
11343;BME280;5726;42.160;24.746;2023-09-18T01:22:52;100045.09;;;22.13;91.87
11343;BME280;5726;42.160;24.746;2023-09-18T01:25:18;100042.31;;;21.82;93.84
11343;BME280;5726;42.160;24.746;2023-09-18T01:27:43;100038.94;;;21.73;94.84
11343;BME280;5726;42.160;24.746;2023-09-18T01:30:09;100046.59;;;21.68;95.41
11343;BME280;5726;42.160;24.746;2023-09-18T01:32:36;100045.50;;;21.57;95.09
11343;BME280;5726;42.160;24.746;2023-09-18T01:35:04;100038.69;;;21.78;93.69
11343;BME280;5726;42.160;24.746;2023-09-18T01:37:32;100046.00;;;21.74;93.57
11343;BME280;5726;42.160;24.746;2023-09-18T01:40:02;100047.09;;;21.85;93.04
11343;BME280;5726;42.160;24.746;2023-09-18T01:42:32;100042.53;;;21.89;92.70
11343;BME280;5726;42.160;24.746;2023-09-18T01:44:57;100031.47;;;21.86;92.73
11343;BME280;5726;42.160;24.746;2023-09-18T01:47:23;100036.16;;;21.85;92.68
11343;BME280;5726;42.160;24.746;2023-09-18T01:49:49;100040.13;;;21.88;92.52
11343;BME280;5726;42.160;24.746;2023-09-18T01:52:15;100038.66;;;21.63;94.63
11343;BME280;5726;42.160;24.746;2023-09-18T01:54:40;100043.66;;;21.88;93.17
11343;BME280;5726;42.160;24.746;2023-09-18T01:57:06;100035.09;;;21.74;93.64
11343;BME280;5726;42.160;24.746;2023-09-18T01:59:33;100047.78;;;21.82;93.25
11343;BME280;5726;42.160;24.746;2023-09-18T02:01:59;100036.63;;;22.03;92.22
11343;BME280;5726;42.160;24.746;2023-09-18T02:04:25;100039.72;;;22.01;91.83
11343;BME280;5726;42.160;24.746;2023-09-18T02:06:51;100043.38;;;21.93;91.87
11343;BME280;5726;42.160;24.746;2023-09-18T02:09:17;100042.63;;;22.08;91.07
11343;BME280;5726;42.160;24.746;2023-09-18T02:11:45;100044.66;;;22.11;90.84
11343;BME280;5726;42.160;24.746;2023-09-18T02:14:11;100048.06;;;21.93;91.82
11343;BME280;5726;42.160;24.746;2023-09-18T02:16:38;100050.66;;;22.01;91.42
11343;BME280;5726;42.160;24.746;2023-09-18T02:19:07;100043.94;;;22.14;90.40
11343;BME280;5726;42.160;24.746;2023-09-18T02:21:32;100045.06;;;22.25;89.64
11343;BME280;5726;42.160;24.746;2023-09-18T02:23:57;100044.66;;;22.11;90.31
11343;BME280;5726;42.160;24.746;2023-09-18T02:26:24;100047.66;;;22.06;90.47
11343;BME280;5726;42.160;24.746;2023-09-18T02:28:52;100052.09;;;22.26;89.08
11343;BME280;5726;42.160;24.746;2023-09-18T02:31:18;100049.88;;;22.16;89.10
11343;BME280;5726;42.160;24.746;2023-09-18T02:33:43;100046.06;;;22.05;90.05
11343;BME280;5726;42.160;24.746;2023-09-18T02:36:09;100043.31;;;22.05;89.79
11343;BME280;5726;42.160;24.746;2023-09-18T02:38:35;100052.84;;;22.11;89.56
11343;BME280;5726;42.160;24.746;2023-09-18T02:41:00;100050.81;;;22.08;90.06
11343;BME280;5726;42.160;24.746;2023-09-18T02:43:26;100047.22;;;22.19;89.13
11343;BME280;5726;42.160;24.746;2023-09-18T02:45:52;100045.94;;;22.29;88.72
11343;BME280;5726;42.160;24.746;2023-09-18T02:48:18;100052.09;;;22.26;89.22
11343;BME280;5726;42.160;24.746;2023-09-18T02:50:44;100059.84;;;22.24;88.41
11343;BME280;5726;42.160;24.746;2023-09-18T02:53:17;100047.28;;;22.08;89.45
11343;BME280;5726;42.160;24.746;2023-09-18T02:55:44;100059.81;;;22.08;89.67
11343;BME280;5726;42.160;24.746;2023-09-18T02:58:09;100061.50;;;22.13;89.30
11343;BME280;5726;42.160;24.746;2023-09-18T03:00:41;100053.97;;;22.22;88.63
11343;BME280;5726;42.160;24.746;2023-09-18T03:03:07;100059.56;;;22.13;88.81
11343;BME280;5726;42.160;24.746;2023-09-18T03:05:33;100060.16;;;22.07;89.36
11343;BME280;5726;42.160;24.746;2023-09-18T03:07:58;100057.94;;;22.12;88.79
11343;BME280;5726;42.160;24.746;2023-09-18T03:10:23;100053.69;;;22.27;88.23
11343;BME280;5726;42.160;24.746;2023-09-18T03:12:49;100061.94;;;22.15;89.01
11343;BME280;5726;42.160;24.746;2023-09-18T03:15:14;100062.16;;;22.22;88.46
11343;BME280;5726;42.160;24.746;2023-09-18T03:17:40;100062.59;;;22.24;88.50
11343;BME280;5726;42.160;24.746;2023-09-18T03:20:08;100061.34;;;22.21;88.74
11343;BME280;5726;42.160;24.746;2023-09-18T03:22:34;100059.63;;;22.17;88.89
11343;BME280;5726;42.160;24.746;2023-09-18T03:24:59;100064.13;;;22.09;88.82
11343;BME280;5726;42.160;24.746;2023-09-18T03:27:25;100063.72;;;22.23;88.84
11343;BME280;5726;42.160;24.746;2023-09-18T03:29:54;100058.44;;;22.30;87.95
11343;BME280;5726;42.160;24.746;2023-09-18T03:32:20;100055.78;;;22.18;88.15
11343;BME280;5726;42.160;24.746;2023-09-18T03:34:46;100056.41;;;22.27;88.57
11343;BME280;5726;42.160;24.746;2023-09-18T03:37:11;100053.00;;;22.30;87.87
11343;BME280;5726;42.160;24.746;2023-09-18T03:39:37;100062.59;;;22.39;86.84
11343;BME280;5726;42.160;24.746;2023-09-18T03:42:02;100066.50;;;22.11;87.78
11343;BME280;5726;42.160;24.746;2023-09-18T03:44:28;100068.53;;;22.14;88.71
11343;BME280;5726;42.160;24.746;2023-09-18T03:46:53;100058.94;;;22.20;87.83
11343;BME280;5726;42.160;24.746;2023-09-18T03:49:19;100067.91;;;22.05;88.70
11343;BME280;5726;42.160;24.746;2023-09-18T03:51:44;100063.13;;;22.02;88.93
11343;BME280;5726;42.160;24.746;2023-09-18T03:54:09;100059.56;;;22.13;88.11
11343;BME280;5726;42.160;24.746;2023-09-18T03:56:35;100067.97;;;22.36;86.91
11343;BME280;5726;42.160;24.746;2023-09-18T03:59:00;100065.75;;;22.26;87.38
11343;BME280;5726;42.160;24.746;2023-09-18T04:01:27;100065.00;;;22.13;87.67
11343;BME280;5726;42.160;24.746;2023-09-18T04:03:52;100067.72;;;22.25;87.00
11343;BME280;5726;42.160;24.746;2023-09-18T04:06:20;100071.78;;;22.04;88.00
11343;BME280;5726;42.160;24.746;2023-09-18T04:08:46;100074.97;;;22.06;88.43
11343;BME280;5726;42.160;24.746;2023-09-18T04:11:11;100071.50;;;22.21;87.41
11343;BME280;5726;42.160;24.746;2023-09-18T04:13:37;100076.03;;;22.17;88.02
11343;BME280;5726;42.160;24.746;2023-09-18T04:16:06;100075.88;;;22.10;88.19
11343;BME280;5726;42.160;24.746;2023-09-18T04:18:32;100075.16;;;22.13;88.05
11343;BME280;5726;42.160;24.746;2023-09-18T04:20:58;100077.63;;;22.18;88.36
11343;BME280;5726;42.160;24.746;2023-09-18T04:23:27;100075.97;;;22.29;86.61
11343;BME280;5726;42.160;24.746;2023-09-18T04:25:54;100072.47;;;22.28;87.24
11343;BME280;5726;42.160;24.746;2023-09-18T04:28:21;100072.75;;;22.39;85.91
11343;BME280;5726;42.160;24.746;2023-09-18T04:30:47;100073.16;;;22.41;86.69
11343;BME280;5726;42.160;24.746;2023-09-18T04:33:15;100075.97;;;22.29;87.04
11343;BME280;5726;42.160;24.746;2023-09-18T04:35:41;100076.78;;;22.45;86.04
11343;BME280;5726;42.160;24.746;2023-09-18T04:38:07;100068.69;;;22.63;90.92
11343;BME280;5726;42.160;24.746;2023-09-18T04:40:36;100067.63;;;22.53;88.68
11343;BME280;5726;42.160;24.746;2023-09-18T04:43:02;100076.59;;;22.38;88.14
11343;BME280;5726;42.160;24.746;2023-09-18T04:45:31;100068.69;;;22.63;86.44
11343;BME280;5726;42.160;24.746;2023-09-18T04:47:57;100066.56;;;22.42;85.48
11343;BME280;5726;42.160;24.746;2023-09-18T04:50:22;100071.84;;;22.35;86.88
11343;BME280;5726;42.160;24.746;2023-09-18T04:52:48;100075.63;;;22.30;85.30
11343;BME280;5726;42.160;24.746;2023-09-18T04:55:16;100075.38;;;22.35;85.54
11343;BME280;5726;42.160;24.746;2023-09-18T04:57:41;100074.31;;;22.24;85.92
11343;BME280;5726;42.160;24.746;2023-09-18T05:00:07;100087.53;;;22.38;85.81
11343;BME280;5726;42.160;24.746;2023-09-18T05:02:34;100078.28;;;22.27;85.61
11343;BME280;5726;42.160;24.746;2023-09-18T05:05:00;100082.69;;;22.31;85.25
11343;BME280;5726;42.160;24.746;2023-09-18T05:07:26;100081.22;;;22.34;86.24
11343;BME280;5726;42.160;24.746;2023-09-18T05:09:52;100078.66;;;22.56;85.22
11343;BME280;5726;42.160;24.746;2023-09-18T05:12:17;100083.22;;;22.67;82.60
11343;BME280;5726;42.160;24.746;2023-09-18T05:14:43;100080.31;;;22.76;82.96
11343;BME280;5726;42.160;24.746;2023-09-18T05:17:10;100079.97;;;22.62;83.12
11343;BME280;5726;42.160;24.746;2023-09-18T05:19:37;100088.16;;;22.47;84.21
11343;BME280;5726;42.160;24.746;2023-09-18T05:22:03;100078.31;;;22.58;83.68
11343;BME280;5726;42.160;24.746;2023-09-18T05:24:28;100083.41;;;22.74;82.23
11343;BME280;5726;42.160;24.746;2023-09-18T05:26:54;100087.09;;;22.82;82.39
11343;BME280;5726;42.160;24.746;2023-09-18T05:29:20;100089.41;;;22.95;81.81
11343;BME280;5726;42.160;24.746;2023-09-18T05:31:46;100068.19;;;23.07;80.77
11343;BME280;5726;42.160;24.746;2023-09-18T05:34:12;100067.38;;;23.41;77.78
11343;BME280;5726;42.160;24.746;2023-09-18T05:36:37;100078.72;;;23.58;77.29
11343;BME280;5726;42.160;24.746;2023-09-18T05:39:03;100072.53;;;23.80;75.79
11343;BME280;5726;42.160;24.746;2023-09-18T05:41:29;100072.03;;;23.75;76.57
11343;BME280;5726;42.160;24.746;2023-09-18T05:43:56;100065.75;;;23.74;75.95
11343;BME280;5726;42.160;24.746;2023-09-18T05:46:21;100080.88;;;23.87;75.92
11343;BME280;5726;42.160;24.746;2023-09-18T05:48:47;100068.22;;;24.20;73.42
11343;BME280;5726;42.160;24.746;2023-09-18T05:51:12;100075.88;;;24.52;71.64
11343;BME280;5726;42.160;24.746;2023-09-18T05:53:38;100080.88;;;24.95;70.66
11343;BME280;5726;42.160;24.746;2023-09-18T05:56:04;100074.44;;;25.36;69.43
11343;BME280;5726;42.160;24.746;2023-09-18T05:58:31;100077.91;;;25.91;66.96
11343;BME280;5726;42.160;24.746;2023-09-18T06:00:58;100075.91;;;25.88;65.67
11343;BME280;5726;42.160;24.746;2023-09-18T06:03:26;100071.88;;;26.15;63.98
11343;BME280;5726;42.160;24.746;2023-09-18T06:05:51;100079.84;;;26.27;63.68
11343;BME280;5726;42.160;24.746;2023-09-18T06:08:17;100080.13;;;26.15;63.50
11343;BME280;5726;42.160;24.746;2023-09-18T06:10:44;100080.34;;;26.32;62.52
11343;BME280;5726;42.160;24.746;2023-09-18T06:13:09;100086.03;;;26.17;62.70
11343;BME280;5726;42.160;24.746;2023-09-18T06:15:35;100082.66;;;25.94;62.76
11343;BME280;5726;42.160;24.746;2023-09-18T06:18:01;100094.28;;;26.17;62.53
11343;BME280;5726;42.160;24.746;2023-09-18T06:20:26;100098.56;;;26.47;61.76
11343;BME280;5726;42.160;24.746;2023-09-18T06:22:52;100096.34;;;26.27;61.93
11343;BME280;5726;42.160;24.746;2023-09-18T06:25:17;100104.72;;;26.01;62.44
11343;BME280;5726;42.160;24.746;2023-09-18T06:27:43;100104.59;;;25.91;61.87
11343;BME280;5726;42.160;24.746;2023-09-18T06:30:09;100101.97;;;25.68;62.66
11343;BME280;5726;42.160;24.746;2023-09-18T06:32:34;100108.31;;;25.47;63.57
11343;BME280;5726;42.160;24.746;2023-09-18T06:35:03;100106.97;;;25.34;65.38
11343;BME280;5726;42.160;24.746;2023-09-18T06:37:29;100109.75;;;25.37;64.97
11343;BME280;5726;42.160;24.746;2023-09-18T06:39:55;100108.94;;;25.07;66.14
11343;BME280;5726;42.160;24.746;2023-09-18T06:42:22;100110.94;;;25.10;66.13
11343;BME280;5726;42.160;24.746;2023-09-18T06:44:47;100105.06;;;25.12;66.13
11343;BME280;5726;42.160;24.746;2023-09-18T06:47:12;100104.44;;;25.22;65.50
11343;BME280;5726;42.160;24.746;2023-09-18T06:49:40;100106.16;;;25.04;66.28
11343;BME280;5726;42.160;24.746;2023-09-18T06:52:07;100105.56;;;25.17;65.40
11343;BME280;5726;42.160;24.746;2023-09-18T06:54:32;100102.41;;;25.45;65.02
11343;BME280;5726;42.160;24.746;2023-09-18T06:56:58;100101.84;;;25.61;64.31
11343;BME280;5726;42.160;24.746;2023-09-18T06:59:23;100106.34;;;25.73;64.48
11343;BME280;5726;42.160;24.746;2023-09-18T07:01:49;100096.63;;;25.53;63.61
11343;BME280;5726;42.160;24.746;2023-09-18T07:04:14;100105.13;;;25.70;63.04
11343;BME280;5726;42.160;24.746;2023-09-18T07:06:40;100093.13;;;25.82;63.58
11343;BME280;5726;42.160;24.746;2023-09-18T07:09:05;100094.25;;;25.77;62.30
11343;BME280;5726;42.160;24.746;2023-09-18T07:11:35;100085.78;;;25.93;60.79
11343;BME280;5726;42.160;24.746;2023-09-18T07:14:00;100090.22;;;26.04;61.19
11343;BME280;5726;42.160;24.746;2023-09-18T07:16:27;100093.84;;;26.48;60.51
11343;BME280;5726;42.160;24.746;2023-09-18T07:18:53;100092.34;;;27.00;58.44
11343;BME280;5726;42.160;24.746;2023-09-18T07:21:18;100111.84;;;26.85;57.83
11343;BME280;5726;42.160;24.746;2023-09-18T07:23:46;100102.38;;;26.82;58.23
11343;BME280;5726;42.160;24.746;2023-09-18T07:26:12;100097.75;;;26.90;58.17
11343;BME280;5726;42.160;24.746;2023-09-18T07:28:38;100096.56;;;27.41;56.74
11343;BME280;5726;42.160;24.746;2023-09-18T07:31:07;100095.91;;;27.64;55.46
11343;BME280;5726;42.160;24.746;2023-09-18T07:33:34;100098.69;;;27.68;55.24
11343;BME280;5726;42.160;24.746;2023-09-18T07:36:00;100104.72;;;28.04;53.92
11343;BME280;5726;42.160;24.746;2023-09-18T07:38:25;100107.00;;;27.82;52.53
11343;BME280;5726;42.160;24.746;2023-09-18T07:40:50;100105.38;;;27.70;53.33
11343;BME280;5726;42.160;24.746;2023-09-18T07:43:16;100104.63;;;27.80;53.28
11343;BME280;5726;42.160;24.746;2023-09-18T07:45:41;100106.34;;;28.09;54.16
11343;BME280;5726;42.160;24.746;2023-09-18T07:48:07;100107.56;;;28.18;52.62
11343;BME280;5726;42.160;24.746;2023-09-18T07:50:34;100106.41;;;28.37;51.71
11343;BME280;5726;42.160;24.746;2023-09-18T07:53:00;100106.34;;;28.16;51.17
11343;BME280;5726;42.160;24.746;2023-09-18T07:55:26;100098.81;;;27.25;53.39
11343;BME280;5726;42.160;24.746;2023-09-18T07:57:51;100102.78;;;27.31;53.63
11343;BME280;5726;42.160;24.746;2023-09-18T08:00:17;100104.44;;;27.45;53.68
11343;BME280;5726;42.160;24.746;2023-09-18T08:02:43;100102.28;;;27.82;52.87
11343;BME280;5726;42.160;24.746;2023-09-18T08:05:09;100092.16;;;28.14;52.34
11343;BME280;5726;42.160;24.746;2023-09-18T08:07:36;100097.56;;;27.86;52.23
11343;BME280;5726;42.160;24.746;2023-09-18T08:10:05;100104.28;;;27.92;51.66
11343;BME280;5726;42.160;24.746;2023-09-18T08:12:33;100092.94;;;27.30;53.07
11343;BME280;5726;42.160;24.746;2023-09-18T08:14:59;100096.09;;;27.32;53.35
11343;BME280;5726;42.160;24.746;2023-09-18T08:17:25;100087.22;;;26.98;54.98
11343;BME280;5726;42.160;24.746;2023-09-18T08:19:52;100086.97;;;27.21;54.17
11343;BME280;5726;42.160;24.746;2023-09-18T08:22:18;100085.09;;;27.39;53.87
11343;BME280;5726;42.160;24.746;2023-09-18T08:24:45;100082.16;;;27.04;55.02
11343;BME280;5726;42.160;24.746;2023-09-18T08:27:13;100089.69;;;27.14;55.42
11343;BME280;5726;42.160;24.746;2023-09-18T08:29:38;100082.38;;;27.42;54.35
11343;BME280;5726;42.160;24.746;2023-09-18T08:32:03;100078.69;;;27.17;54.95
11343;BME280;5726;42.160;24.746;2023-09-18T08:34:29;100069.88;;;27.51;54.25
11343;BME280;5726;42.160;24.746;2023-09-18T08:36:54;100075.50;;;27.86;53.30
11343;BME280;5726;42.160;24.746;2023-09-18T08:39:20;100078.69;;;27.92;52.41
11343;BME280;5726;42.160;24.746;2023-09-18T08:41:49;100083.38;;;27.84;51.94
11343;BME280;5726;42.160;24.746;2023-09-18T08:44:17;100079.47;;;27.92;51.74
11343;BME280;5726;42.160;24.746;2023-09-18T08:46:44;100068.31;;;27.57;52.79
11343;BME280;5726;42.160;24.746;2023-09-18T08:49:10;100078.59;;;27.74;52.33
11343;BME280;5726;42.160;24.746;2023-09-18T08:51:38;100071.63;;;27.20;53.11
11343;BME280;5726;42.160;24.746;2023-09-18T08:54:04;100074.84;;;27.29;53.39
11343;BME280;5726;42.160;24.746;2023-09-18T08:56:31;100067.28;;;27.19;53.87
11343;BME280;5726;42.160;24.746;2023-09-18T08:58:58;100073.56;;;27.12;53.80
11343;BME280;5726;42.160;24.746;2023-09-18T09:01:25;100071.19;;;27.14;53.43
11343;BME280;5726;42.160;24.746;2023-09-18T09:03:50;100071.91;;;27.01;53.74
11343;BME280;5726;42.160;24.746;2023-09-18T09:06:16;100062.59;;;26.69;55.46
11343;BME280;5726;42.160;24.746;2023-09-18T09:08:42;100070.69;;;26.52;54.89
11343;BME280;5726;42.160;24.746;2023-09-18T09:11:07;100060.91;;;26.54;55.27
11343;BME280;5726;42.160;24.746;2023-09-18T09:13:33;100059.81;;;26.66;54.74
11343;BME280;5726;42.160;24.746;2023-09-18T09:15:59;100044.50;;;26.72;54.68
11343;BME280;5726;42.160;24.746;2023-09-18T09:18:29;100052.69;;;27.11;53.19
11343;BME280;5726;42.160;24.746;2023-09-18T09:21:03;100050.09;;;27.39;53.15
11343;BME280;5726;42.160;24.746;2023-09-18T09:23:48;100054.81;;;27.39;52.44
11343;BME280;5726;42.160;24.746;2023-09-18T09:26:15;100045.28;;;27.22;50.91
11343;BME280;5726;42.160;24.746;2023-09-18T09:28:44;100049.69;;;26.77;52.28
11343;BME280;5726;42.160;24.746;2023-09-18T09:31:10;100053.06;;;27.10;51.17
11343;BME280;5726;42.160;24.746;2023-09-18T09:33:37;100057.59;;;27.42;50.58
11343;BME280;5726;42.160;24.746;2023-09-18T09:36:06;100059.09;;;27.33;50.54
11343;BME280;5726;42.160;24.746;2023-09-18T09:38:33;100054.53;;;27.57;50.17
11343;BME280;5726;42.160;24.746;2023-09-18T09:41:00;100048.78;;;27.97;49.84
11343;BME280;5726;42.160;24.746;2023-09-18T09:43:27;100045.50;;;27.64;50.15
11343;BME280;5726;42.160;24.746;2023-09-18T09:46:00;100048.31;;;27.78;49.78
11343;BME280;5726;42.160;24.746;2023-09-18T09:48:27;100043.84;;;27.49;50.80
11343;BME280;5726;42.160;24.746;2023-09-18T09:50:57;100040.22;;;26.74;52.42
11343;BME280;5726;42.160;24.746;2023-09-18T09:53:45;100043.44;;;26.83;52.96
11343;BME280;5726;42.160;24.746;2023-09-18T09:56:12;100043.06;;;26.38;53.98
11343;BME280;5726;42.160;24.746;2023-09-18T09:58:37;100041.84;;;26.82;53.66
11343;BME280;5726;42.160;24.746;2023-09-18T10:01:08;100028.44;;;27.38;52.03
11343;BME280;5726;42.160;24.746;2023-09-18T10:03:38;100034.34;;;27.40;51.25
11343;BME280;5726;42.160;24.746;2023-09-18T10:06:04;100032.09;;;27.55;51.35
11343;BME280;5726;42.160;24.746;2023-09-18T10:08:31;100026.38;;;27.21;52.35
11343;BME280;5726;42.160;24.746;2023-09-18T10:11:07;100031.94;;;27.28;51.44
11343;BME280;5726;42.160;24.746;2023-09-18T10:13:48;100029.22;;;27.42;50.62
11343;BME280;5726;42.160;24.746;2023-09-18T10:16:18;100020.88;;;27.21;50.62
11343;BME280;5726;42.160;24.746;2023-09-18T10:19:11;100017.78;;;27.33;50.10
11343;BME280;5726;42.160;24.746;2023-09-18T10:24:24;100014.41;;;26.89;51.77
11343;BME280;5726;42.160;24.746;2023-09-18T10:29:19;100000.97;;;26.84;52.26
11343;BME280;5726;42.160;24.746;2023-09-18T10:31:47;100010.78;;;26.78;51.68
11343;BME280;5726;42.160;24.746;2023-09-18T10:34:13;100004.06;;;26.72;51.32
11343;BME280;5726;42.160;24.746;2023-09-18T10:36:41;99998.84;;;27.17;50.37
11343;BME280;5726;42.160;24.746;2023-09-18T10:39:08;99992.97;;;27.26;48.71
11343;BME280;5726;42.160;24.746;2023-09-18T10:41:36;99998.00;;;27.06;49.72
11343;BME280;5726;42.160;24.746;2023-09-18T10:44:03;99987.13;;;27.38;49.21
11343;BME280;5726;42.160;24.746;2023-09-18T10:46:29;99986.34;;;27.41;49.51
11343;BME280;5726;42.160;24.746;2023-09-18T10:48:56;99974.78;;;27.07;49.73
11343;BME280;5726;42.160;24.746;2023-09-18T10:51:22;99977.63;;;27.25;49.00
11343;BME280;5726;42.160;24.746;2023-09-18T10:53:49;99976.09;;;27.38;49.44
11343;BME280;5726;42.160;24.746;2023-09-18T10:56:15;99975.00;;;27.52;47.04
11343;BME280;5726;42.160;24.746;2023-09-18T10:58:42;99967.50;;;27.49;47.80
11343;BME280;5726;42.160;24.746;2023-09-18T11:01:11;99977.78;;;27.66;47.52
11343;BME280;5726;42.160;24.746;2023-09-18T11:03:37;99969.91;;;27.68;46.61
11343;BME280;5726;42.160;24.746;2023-09-18T11:06:05;99967.53;;;27.56;47.17
11343;BME280;5726;42.160;24.746;2023-09-18T11:08:36;99965.38;;;27.15;48.00
11343;BME280;5726;42.160;24.746;2023-09-18T11:11:09;99970.19;;;27.36;47.46
11343;BME280;5726;42.160;24.746;2023-09-18T11:13:41;99967.41;;;27.36;47.64
11343;BME280;5726;42.160;24.746;2023-09-18T11:18:53;99949.72;;;27.37;47.45
11343;BME280;5726;42.160;24.746;2023-09-18T11:21:24;99946.59;;;27.42;47.20
11343;BME280;5726;42.160;24.746;2023-09-18T11:24:07;99947.38;;;27.32;46.86
11343;BME280;5726;42.160;24.746;2023-09-18T11:26:39;99951.63;;;27.19;47.60
11343;BME280;5726;42.160;24.746;2023-09-18T11:29:17;99948.63;;;27.51;47.91
11343;BME280;5726;42.160;24.746;2023-09-18T11:31:52;99940.69;;;27.36;46.72
11343;BME280;5726;42.160;24.746;2023-09-18T11:34:20;99945.09;;;27.51;47.48
11343;BME280;5726;42.160;24.746;2023-09-18T11:36:45;99951.78;;;27.60;46.34
11343;BME280;5726;42.160;24.746;2023-09-18T11:39:12;99947.09;;;27.78;45.44
11343;BME280;5726;42.160;24.746;2023-09-18T11:41:38;99950.22;;;27.70;44.89
11343;BME280;5726;42.160;24.746;2023-09-18T11:46:38;99942.41;;;27.82;44.70
11343;BME280;5726;42.160;24.746;2023-09-18T11:49:07;99943.97;;;27.83;44.13
11343;BME280;5726;42.160;24.746;2023-09-18T11:51:32;99934.38;;;27.36;44.44
11343;BME280;5726;42.160;24.746;2023-09-18T11:53:58;99932.13;;;27.62;43.67
11343;BME280;5726;42.160;24.746;2023-09-18T11:56:24;99931.34;;;27.68;44.00
11343;BME280;5726;42.160;24.746;2023-09-18T11:58:51;99936.09;;;27.92;42.65
11343;BME280;5726;42.160;24.746;2023-09-18T12:01:18;99927.41;;;27.80;43.86
11343;BME280;5726;42.160;24.746;2023-09-18T12:03:44;99921.13;;;27.90;43.26
11343;BME280;5726;42.160;24.746;2023-09-18T12:06:10;99922.28;;;27.71;43.49
11343;BME280;5726;42.160;24.746;2023-09-18T12:08:39;99918.75;;;27.81;43.27
11343;BME280;5726;42.160;24.746;2023-09-18T12:11:06;99923.47;;;27.77;42.91
11343;BME280;5726;42.160;24.746;2023-09-18T12:13:32;99912.47;;;27.70;43.46
11343;BME280;5726;42.160;24.746;2023-09-18T12:16:02;99908.16;;;27.97;42.56
11343;BME280;5726;42.160;24.746;2023-09-18T12:18:30;99910.88;;;27.90;42.93
11343;BME280;5726;42.160;24.746;2023-09-18T12:20:56;99913.25;;;27.95;43.32
11343;BME280;5726;42.160;24.746;2023-09-18T12:23:21;99907.75;;;27.98;41.92
11343;BME280;5726;42.160;24.746;2023-09-18T12:25:49;99897.13;;;27.97;42.58
11343;BME280;5726;42.160;24.746;2023-09-18T12:28:15;99899.09;;;28.21;41.92
11343;BME280;5726;42.160;24.746;2023-09-18T12:30:43;99895.53;;;27.75;41.84
11343;BME280;5726;42.160;24.746;2023-09-18T12:33:12;99896.69;;;27.74;42.44
11343;BME280;5726;42.160;24.746;2023-09-18T12:35:40;99897.50;;;27.99;42.00
11343;BME280;5726;42.160;24.746;2023-09-18T12:38:16;99901.06;;;28.03;41.87
11343;BME280;5726;42.160;24.746;2023-09-18T12:40:50;99888.03;;;27.76;41.78
11343;BME280;5726;42.160;24.746;2023-09-18T12:43:16;99888.81;;;27.59;42.38
11343;BME280;5726;42.160;24.746;2023-09-18T12:45:42;99891.19;;;27.81;42.45
11343;BME280;5726;42.160;24.746;2023-09-18T12:48:09;99886.47;;;27.99;41.75
11343;BME280;5726;42.160;24.746;2023-09-18T12:50:35;99880.16;;;28.02;41.71
11343;BME280;5726;42.160;24.746;2023-09-18T12:53:13;99887.28;;;28.10;41.84
11343;BME280;5726;42.160;24.746;2023-09-18T12:55:40;99878.59;;;27.94;42.08
11343;BME280;5726;42.160;24.746;2023-09-18T12:58:09;99875.84;;;27.87;41.38
11343;BME280;5726;42.160;24.746;2023-09-18T13:00:35;99871.13;;;27.94;41.44
11343;BME280;5726;42.160;24.746;2023-09-18T13:03:02;99863.63;;;27.74;41.62